Time;durP1;ratioP1;P1;durP2;ratioP2;P2;SDS_P1;SDS_P2;PMS_P1;PMS_P2;Temp;Humidity;BMP_temperature;BMP_pressure;BME280_temperature;BME280_humidity;BME280_pressure;Samples;Min_cycle;Max_cycle;Signal;HPM_P1;HPM_P2
2022/08/13 00:02:59;;;;;;;11.77;8.15;;;;;;;;;;5051594;28;20048;-73
2022/08/13 00:06:05;;;;;;;14.05;8.35;;;;;;;;;;5051832;28;20048;-73
2022/08/13 00:09:12;;;;;;;14.43;7.88;;;;;;;;;;5052223;28;20055;-73
2022/08/13 00:15:59;;;;;;;9.10;7.18;;;;;;;;;;5051574;28;20043;-73
2022/08/13 00:19:04;;;;;;;11.27;7.88;;;;;;;;;;5051584;28;20037;-73
2022/08/13 00:22:08;;;;;;;12.23;7.22;;;;;;;;;;5051925;28;20479;-74
2022/08/13 00:25:13;;;;;;;15.20;7.03;;;;;;;;;;5051698;28;20047;-74
2022/08/13 00:28:18;;;;;;;12.02;6.82;;;;;;;;;;5051803;28;20048;-74
2022/08/13 00:31:23;;;;;;;11.73;7.28;;;;;;;;;;5051254;28;20052;-74
2022/08/13 00:34:28;;;;;;;13.10;7.45;;;;;;;;;;5051562;28;20393;-72
2022/08/13 00:37:32;;;;;;;11.15;6.72;;;;;;;;;;5051111;28;20043;-73
2022/08/13 00:40:41;;;;;;;8.50;7.43;;;;;;;;;;5050917;28;20429;-73
2022/08/13 00:43:45;;;;;;;14.60;7.75;;;;;;;;;;5050841;28;20041;-73
2022/08/13 00:48:41;;;;;;;11.50;7.78;;;;;;;;;;5050820;28;20052;-72
2022/08/13 00:50:13;;;;;;;13.35;7.78;;;;;;;;;;5051007;28;20535;-72
2022/08/13 00:53:18;;;;;;;8.40;7.50;;;;;;;;;;5051664;28;20369;-73
2022/08/13 00:56:22;;;;;;;11.57;7.90;;;;;;;;;;5050758;28;20032;-73
2022/08/13 00:59:27;;;;;;;11.65;7.95;;;;;;;;;;5050865;28;20068;-74
2022/08/13 01:02:31;;;;;;;12.65;7.72;;;;;;;;;;5050950;28;20343;-73
2022/08/13 01:05:36;;;;;;;13.80;8.07;;;;;;;;;;5049852;28;20401;-73
2022/08/13 01:08:40;;;;;;;11.45;7.70;;;;;;;;;;5051100;28;20048;-73
2022/08/13 01:11:45;;;;;;;13.35;8.38;;;;;;;;;;5050823;28;20508;-73
2022/08/13 01:14:49;;;;;;;11.85;7.85;;;;;;;;;;5050731;28;20044;-73
2022/08/13 01:17:54;;;;;;;11.63;7.60;;;;;;;;;;5050976;28;20051;-73
2022/08/13 01:21:08;;;;;;;10.13;7.65;;;;;;;;;;5050950;28;20059;-72
2022/08/13 01:24:12;;;;;;;13.52;8.63;;;;;;;;;;5050894;28;20389;-73
2022/08/13 01:27:20;;;;;;;14.65;8.20;;;;;;;;;;5051060;28;20396;-73
2022/08/13 01:30:24;;;;;;;10.63;7.95;;;;;;;;;;5050401;28;20063;-73
2022/08/13 01:33:29;;;;;;;9.38;8.02;;;;;;;;;;5051376;28;20040;-73
2022/08/13 01:36:34;;;;;;;10.75;8.02;;;;;;;;;;5049621;28;20041;-73
2022/08/13 01:39:39;;;;;;;12.35;7.85;;;;;;;;;;5049452;28;20056;-72
2022/08/13 01:42:45;;;;;;;11.23;7.32;;;;;;;;;;5050377;28;20527;-73
2022/08/13 01:45:50;;;;;;;15.90;8.02;;;;;;;;;;5050792;28;20068;-73
2022/08/13 01:52:17;;;;;;;12.38;8.23;;;;;;;;;;5050748;28;20500;-72
2022/08/13 01:55:22;;;;;;;14.05;8.52;;;;;;;;;;5050641;28;20048;-74
2022/08/13 01:58:29;;;;;;;11.88;8.20;;;;;;;;;;5051859;28;20044;-73
2022/08/13 02:01:33;;;;;;;12.13;8.13;;;;;;;;;;5053869;28;20043;-74
2022/08/13 02:04:39;;;;;;;15.23;7.97;;;;;;;;;;5054237;28;20036;-74
2022/08/13 02:07:43;;;;;;;11.75;7.68;;;;;;;;;;5054256;28;20052;-73
2022/08/13 02:10:49;;;;;;;17.15;8.52;;;;;;;;;;5053686;28;20048;-74
2022/08/13 02:13:54;;;;;;;13.02;7.20;;;;;;;;;;5054224;28;20146;-73
2022/08/13 02:16:59;;;;;;;14.25;8.02;;;;;;;;;;5053669;28;20499;-75
2022/08/13 02:20:04;;;;;;;14.80;7.60;;;;;;;;;;5052945;28;20056;-75
2022/08/13 02:23:08;;;;;;;13.45;7.32;;;;;;;;;;5052788;28;20048;-73
2022/08/13 02:26:13;;;;;;;11.10;7.22;;;;;;;;;;5053913;28;20071;-73
2022/08/13 02:29:19;;;;;;;13.10;7.40;;;;;;;;;;5054355;28;20056;-73
2022/08/13 02:32:24;;;;;;;11.55;7.10;;;;;;;;;;5052879;28;20051;-73
2022/08/13 02:35:28;;;;;;;12.35;6.75;;;;;;;;;;5052795;28;20119;-73
2022/08/13 02:38:32;;;;;;;15.50;6.80;;;;;;;;;;5052363;28;20536;-74
2022/08/13 02:41:43;;;;;;;10.38;7.32;;;;;;;;;;5052233;28;20048;-73
2022/08/13 02:44:49;;;;;;;13.73;7.47;;;;;;;;;;5053408;28;20048;-73
2022/08/13 02:47:54;;;;;;;10.85;6.97;;;;;;;;;;5053129;28;20547;-73
2022/08/13 02:50:58;;;;;;;12.23;6.68;;;;;;;;;;5052581;28;20048;-74
2022/08/13 02:54:05;;;;;;;8.80;5.80;;;;;;;;;;5052263;28;20414;-74
2022/08/13 02:57:10;;;;;;;13.05;7.07;;;;;;;;;;5052358;28;20049;-74
2022/08/13 03:00:16;;;;;;;12.10;6.40;;;;;;;;;;5052989;28;20412;-74
2022/08/13 03:03:20;;;;;;;13.23;6.93;;;;;;;;;;5053146;28;20400;-74
2022/08/13 03:06:25;;;;;;;10.23;7.00;;;;;;;;;;5052121;28;20048;-73
2022/08/13 03:09:30;;;;;;;10.73;6.32;;;;;;;;;;5051298;28;20052;-74
2022/08/13 03:12:34;;;;;;;7.85;6.00;;;;;;;;;;5051979;28;20036;-74
2022/08/13 03:15:39;;;;;;;7.18;5.78;;;;;;;;;;5052718;28;20037;-72
2022/08/13 03:18:43;;;;;;;14.80;6.20;;;;;;;;;;5051752;28;20045;-73
2022/08/13 03:21:49;;;;;;;6.60;5.90;;;;;;;;;;5051783;28;20044;-73
2022/08/13 03:24:54;;;;;;;11.50;6.40;;;;;;;;;;5052043;28;20385;-73
2022/08/13 03:27:59;;;;;;;7.72;6.13;;;;;;;;;;5052402;28;20044;-73
2022/08/13 03:31:05;;;;;;;9.07;6.05;;;;;;;;;;5051527;28;20036;-73
2022/08/13 03:34:10;;;;;;;8.23;6.72;;;;;;;;;;5051737;28;20037;-73
2022/08/13 03:37:15;;;;;;;15.02;6.78;;;;;;;;;;5051531;28;20037;-73
2022/08/13 03:40:19;;;;;;;12.95;6.57;;;;;;;;;;5051952;28;20044;-73
2022/08/13 03:43:24;;;;;;;8.63;6.35;;;;;;;;;;5052254;28;20048;-74
2022/08/13 03:46:29;;;;;;;11.30;6.13;;;;;;;;;;5051544;28;20437;-74
2022/08/13 03:49:35;;;;;;;11.77;6.80;;;;;;;;;;5051188;28;20044;-74
2022/08/13 03:52:40;;;;;;;10.82;6.50;;;;;;;;;;5052410;28;20052;-74
2022/08/13 03:55:45;;;;;;;11.82;6.43;;;;;;;;;;5052289;28;20048;-74
2022/08/13 03:58:50;;;;;;;11.50;6.10;;;;;;;;;;5051863;28;20063;-73
2022/08/13 04:01:55;;;;;;;9.45;5.32;;;;;;;;;;5051127;28;20508;-73
2022/08/13 04:05:00;;;;;;;10.13;5.97;;;;;;;;;;5051614;28;20040;-74
2022/08/13 04:08:05;;;;;;;7.63;5.57;;;;;;;;;;5052044;28;20044;-74
2022/08/13 04:11:11;;;;;;;10.65;6.20;;;;;;;;;;5050872;28;20036;-73
2022/08/13 04:14:15;;;;;;;11.50;6.00;;;;;;;;;;5050957;28;20048;-73
2022/08/13 04:17:20;;;;;;;10.85;6.18;;;;;;;;;;5051777;28;20056;-74
2022/08/13 04:20:25;;;;;;;13.48;5.97;;;;;;;;;;5051611;28;20043;-73
2022/08/13 04:23:29;;;;;;;10.00;5.65;;;;;;;;;;5051400;28;20047;-73
2022/08/13 04:26:34;;;;;;;12.63;5.93;;;;;;;;;;5050913;28;20040;-73
2022/08/13 04:29:39;;;;;;;13.52;6.32;;;;;;;;;;5051530;28;20040;-74
2022/08/13 04:32:44;;;;;;;9.38;6.20;;;;;;;;;;5051574;28;20052;-74
2022/08/13 04:35:48;;;;;;;11.57;6.35;;;;;;;;;;5050433;28;20037;-74
2022/08/13 04:38:52;;;;;;;8.75;6.10;;;;;;;;;;5050707;28;20052;-73
2022/08/13 04:41:57;;;;;;;9.35;6.05;;;;;;;;;;5050226;28;20493;-73
2022/08/13 04:45:02;;;;;;;12.05;6.75;;;;;;;;;;5051795;28;20044;-74
2022/08/13 04:48:09;;;;;;;12.63;8.23;;;;;;;;;;5051190;28;20064;-74
2022/08/13 04:51:14;;;;;;;15.20;8.40;;;;;;;;;;5050776;28;20040;-74
2022/08/13 04:54:19;;;;;;;20.52;8.75;;;;;;;;;;5050404;28;20048;-75
2022/08/13 04:57:24;;;;;;;9.32;7.53;;;;;;;;;;5050943;28;20040;-74
2022/08/13 05:00:35;;;;;;;10.85;6.32;;;;;;;;;;5051861;28;20370;-74
2022/08/13 05:03:41;;;;;;;6.97;5.68;;;;;;;;;;5051944;28;20048;-73
2022/08/13 05:06:46;;;;;;;9.75;5.60;;;;;;;;;;5050528;28;20041;-74
2022/08/13 05:09:50;;;;;;;7.85;5.97;;;;;;;;;;5050674;28;20033;-75
2022/08/13 05:12:55;;;;;;;8.57;5.38;;;;;;;;;;5050707;28;20044;-74
2022/08/13 05:16:01;;;;;;;9.98;5.82;;;;;;;;;;5051523;28;20041;-74
2022/08/13 05:19:06;;;;;;;10.32;5.97;;;;;;;;;;5051279;28;20477;-73
2022/08/13 05:22:10;;;;;;;8.50;6.40;;;;;;;;;;5051389;28;20392;-74
2022/08/13 05:25:15;;;;;;;7.32;6.07;;;;;;;;;;5050990;28;20044;-74
2022/08/13 05:28:20;;;;;;;12.05;6.72;;;;;;;;;;5050014;28;20045;-74
2022/08/13 05:31:24;;;;;;;11.82;6.30;;;;;;;;;;5050271;28;20036;-74
2022/08/13 05:34:29;;;;;;;12.07;7.03;;;;;;;;;;5054117;28;20048;-74
2022/08/13 05:37:33;;;;;;;8.68;6.28;;;;;;;;;;5054444;28;20032;-74
2022/08/13 05:40:38;;;;;;;12.70;5.50;;;;;;;;;;5053524;28;20068;-75
2022/08/13 05:43:43;;;;;;;9.40;6.75;;;;;;;;;;5053772;28;20043;-74
2022/08/13 05:46:47;;;;;;;8.77;6.45;;;;;;;;;;5054247;28;20049;-75
2022/08/13 05:49:54;;;;;;;8.80;6.68;;;;;;;;;;5054574;28;20029;-74
2022/08/13 05:53:07;;;;;;;16.58;6.72;;;;;;;;;;5053680;28;20036;-74
2022/08/13 05:56:12;;;;;;;8.73;6.18;;;;;;;;;;5053556;28;20048;-74
2022/08/13 06:06:04;;;;;;;7.22;5.90;;;;;;;;;;5053251;28;20029;-73
2022/08/13 06:09:09;;;;;;;10.38;5.10;;;;;;;;;;5054073;28;20033;-73
2022/08/13 06:12:15;;;;;;;7.53;5.35;;;;;;;;;;5054264;28;20040;-75
2022/08/13 06:15:22;;;;;;;21.48;6.20;;;;;;;;;;5041890;28;20045;-75
2022/08/13 06:18:37;;;;;;;12.27;5.40;;;;;;;;;;5055229;28;20040;-75
2022/08/13 06:21:41;;;;;;;10.73;5.65;;;;;;;;;;5055776;28;20392;-76
2022/08/13 06:24:47;;;;;;;8.68;5.30;;;;;;;;;;5054225;28;20052;-76
2022/08/13 06:27:52;;;;;;;8.55;5.53;;;;;;;;;;5054400;28;20477;-75
2022/08/13 06:30:58;;;;;;;16.10;5.45;;;;;;;;;;5054621;28;20037;-75
2022/08/13 06:34:03;;;;;;;6.22;5.53;;;;;;;;;;5053475;28;20503;-75
2022/08/13 06:37:08;;;;;;;9.98;6.00;;;;;;;;;;5054165;28;20045;-76
2022/08/13 06:40:14;;;;;;;9.52;4.82;;;;;;;;;;5053237;28;20048;-75
2022/08/13 06:43:20;;;;;;;12.15;4.13;;;;;;;;;;5042393;28;20025;-75
2022/08/13 06:46:26;;;;;;;6.65;4.68;;;;;;;;;;5053803;28;20133;-74
2022/08/13 06:49:31;;;;;;;7.15;4.40;;;;;;;;;;5053549;28;20053;-74
2022/08/13 06:52:36;;;;;;;6.07;4.22;;;;;;;;;;5052564;28;20033;-74
2022/08/13 06:55:41;;;;;;;10.43;4.63;;;;;;;;;;5052967;28;20041;-73
2022/08/13 06:58:47;;;;;;;10.65;5.03;;;;;;;;;;5053061;28;20520;-74
2022/08/13 07:01:57;;;;;;;10.68;5.35;;;;;;;;;;5053271;28;20400;-72
2022/08/13 07:05:01;;;;;;;12.38;5.43;;;;;;;;;;5052564;28;20675;-75
2022/08/13 07:08:07;;;;;;;7.10;5.45;;;;;;;;;;5052983;28;20068;-74
2022/08/13 07:11:24;;;;;;;11.52;5.38;;;;;;;;;;5053178;28;20037;-73
2022/08/13 07:14:28;;;;;;;10.63;5.65;;;;;;;;;;5053113;28;20059;-73
2022/08/13 07:17:32;;;;;;;7.72;5.57;;;;;;;;;;5051851;28;20048;-77
2022/08/13 07:20:37;;;;;;;6.22;4.72;;;;;;;;;;5053689;28;20382;-77
2022/08/13 07:23:43;;;;;;;13.02;5.53;;;;;;;;;;5052528;28;20037;-75
2022/08/13 07:26:47;;;;;;;10.60;5.20;;;;;;;;;;5053277;28;20064;-74
2022/08/13 07:29:53;;;;;;;8.65;4.75;;;;;;;;;;5052281;28;20044;-75
2022/08/13 07:32:57;;;;;;;5.85;4.00;;;;;;;;;;5053738;28;20476;-75
2022/08/13 07:36:10;;;;;;;13.85;4.15;;;;;;;;;;5053714;28;20041;-74
2022/08/13 07:39:16;;;;;;;7.18;4.20;;;;;;;;;;5052728;28;20052;-74
2022/08/13 07:42:21;;;;;;;8.35;5.40;;;;;;;;;;5053248;28;20041;-75
2022/08/13 07:45:27;;;;;;;9.80;5.80;;;;;;;;;;5052711;28;20393;-73
2022/08/13 07:48:31;;;;;;;10.90;8.02;;;;;;;;;;5039456;28;20041;-75
2022/08/13 07:51:37;;;;;;;8.23;7.20;;;;;;;;;;5051418;28;20060;-76
2022/08/13 07:54:45;;;;;;;12.70;7.53;;;;;;;;;;5051582;28;20029;-77
2022/08/13 07:57:49;;;;;;;8.63;6.38;;;;;;;;;;5053047;28;20044;-77
2022/08/13 08:00:57;;;;;;;9.80;5.80;;;;;;;;;;5051498;28;20057;-77
2022/08/13 08:04:02;;;;;;;10.00;5.32;;;;;;;;;;5040471;28;20041;-76
2022/08/13 08:07:08;;;;;;;8.15;4.47;;;;;;;;;;5039571;28;20157;-76
2022/08/13 08:10:13;;;;;;;9.98;5.35;;;;;;;;;;5051036;28;20480;-77
2022/08/13 08:13:18;;;;;;;10.32;5.90;;;;;;;;;;5051960;28;20033;-78
2022/08/13 08:16:22;;;;;;;7.68;5.53;;;;;;;;;;5052073;28;20048;-77
2022/08/13 08:19:31;;;;;;;11.55;6.03;;;;;;;;;;5050932;28;20402;-78
2022/08/13 08:22:35;;;;;;;10.95;5.10;;;;;;;;;;5053468;28;20048;-78
2022/08/13 08:25:41;;;;;;;7.35;5.03;;;;;;;;;;5052691;28;20063;-78
2022/08/13 08:28:46;;;;;;;7.32;4.75;;;;;;;;;;5052539;28;20045;-79
2022/08/13 08:31:50;;;;;;;11.65;5.20;;;;;;;;;;5053551;28;20390;-77
2022/08/13 08:34:54;;;;;;;6.68;4.50;;;;;;;;;;5052154;28;20051;-77
2022/08/13 08:44:45;;;;;;;10.38;4.20;;;;;;;;;;5050727;28;20037;-77
2022/08/13 08:47:49;;;;;;;7.45;4.35;;;;;;;;;;5050616;28;20054;-77
2022/08/13 08:50:54;;;;;;;8.38;4.00;;;;;;;;;;5051065;28;20045;-79
2022/08/13 08:53:59;;;;;;;10.23;4.75;;;;;;;;;;5050409;28;20036;-79
2022/08/13 08:57:05;;;;;;;10.85;4.93;;;;;;;;;;5050887;28;20048;-78
2022/08/13 09:00:13;;;;;;;11.63;4.75;;;;;;;;;;5051407;28;20508;-79
2022/08/13 09:03:19;;;;;;;8.90;4.80;;;;;;;;;;5051877;28;20425;-79
2022/08/13 09:06:24;;;;;;;7.13;4.60;;;;;;;;;;5051300;28;20049;-78
2022/08/13 09:09:29;;;;;;;7.85;4.60;;;;;;;;;;5050590;28;20041;-77
2022/08/13 09:12:34;;;;;;;11.98;5.85;;;;;;;;;;5053875;28;20041;-77
2022/08/13 09:15:40;;;;;;;7.35;4.95;;;;;;;;;;5051599;28;20112;-78
2022/08/13 09:18:45;;;;;;;12.15;5.82;;;;;;;;;;5051802;28;20377;-80
2022/08/13 09:21:49;;;;;;;7.95;4.60;;;;;;;;;;5051999;28;20048;-79
2022/08/13 09:24:57;;;;;;;4.65;3.88;;;;;;;;;;5039974;28;20037;-79
2022/08/13 09:28:03;;;;;;;6.88;3.97;;;;;;;;;;5039178;28;20053;-80
2022/08/13 09:31:08;;;;;;;5.22;4.00;;;;;;;;;;5051938;28;20358;-82
2022/08/13 09:34:12;;;;;;;5.93;4.10;;;;;;;;;;5051483;28;20041;-79
2022/08/13 09:37:17;;;;;;;5.13;3.70;;;;;;;;;;5051377;28;20033;-78
2022/08/13 09:40:26;;;;;;;5.88;3.67;;;;;;;;;;5051683;28;20496;-77
2022/08/13 09:43:40;;;;;;;5.28;3.42;;;;;;;;;;5051319;28;20029;-77
2022/08/13 09:46:45;;;;;;;4.97;3.22;;;;;;;;;;5052635;28;20041;-80
2022/08/13 09:49:50;;;;;;;4.22;3.60;;;;;;;;;;5051029;28;20045;-80
2022/08/13 09:52:56;;;;;;;5.18;2.90;;;;;;;;;;5039507;28;20492;-82
2022/08/13 09:56:01;;;;;;;4.78;3.45;;;;;;;;;;5039460;28;20066;-79
2022/08/13 09:59:07;;;;;;;3.70;3.20;;;;;;;;;;5030843;28;20045;-81
2022/08/13 10:02:12;;;;;;;7.88;3.60;;;;;;;;;;5050416;28;20053;-78
2022/08/13 10:05:18;;;;;;;3.60;3.10;;;;;;;;;;5051452;28;20045;-78
2022/08/13 10:08:24;;;;;;;8.85;3.30;;;;;;;;;;5049230;28;20041;-79
2022/08/13 10:11:30;;;;;;;11.43;3.13;;;;;;;;;;5038777;28;20045;-77
2022/08/13 10:14:34;;;;;;;3.03;2.80;;;;;;;;;;5050858;28;20052;-78
2022/08/13 10:17:45;;;;;;;5.90;3.08;;;;;;;;;;5039492;28;20481;-78
2022/08/13 10:20:50;;;;;;;3.63;2.70;;;;;;;;;;5052731;28;20049;-77
2022/08/13 10:23:54;;;;;;;5.55;3.40;;;;;;;;;;5055349;28;20029;-78
2022/08/13 10:26:58;;;;;;;5.10;2.70;;;;;;;;;;5054348;28;20615;-76
2022/08/13 10:30:05;;;;;;;8.52;4.32;;;;;;;;;;5055115;28;20037;-78
2022/08/13 10:33:12;;;;;;;3.85;3.17;;;;;;;;;;5031612;28;20041;-77
2022/08/13 10:36:17;;;;;;;9.77;8.77;;;;;;;;;;5042562;28;20037;-78
2022/08/13 10:39:21;;;;;;;33.05;27.10;;;;;;;;;;5042402;28;20045;-78
2022/08/13 10:42:27;;;;;;;12.52;5.85;;;;;;;;;;5031231;28;20068;-78
2022/08/13 10:45:31;;;;;;;8.60;5.57;;;;;;;;;;5042247;28;20052;-78
2022/08/13 10:48:36;;;;;;;7.80;5.07;;;;;;;;;;5043110;28;20037;-78
2022/08/13 10:51:41;;;;;;;5.22;4.00;;;;;;;;;;5030675;28;20405;-78
2022/08/13 10:54:46;;;;;;;6.32;4.53;;;;;;;;;;5053845;28;20480;-78
2022/08/13 10:57:51;;;;;;;7.82;3.92;;;;;;;;;;5031103;28;20453;-78
2022/08/13 11:00:56;;;;;;;4.45;3.80;;;;;;;;;;5053515;28;20388;-78
2022/08/13 11:04:01;;;;;;;4.03;3.10;;;;;;;;;;5054925;28;20045;-77
2022/08/13 11:07:11;;;;;;;5.20;4.03;;;;;;;;;;5042567;28;20044;-78
2022/08/13 11:10:18;;;;;;;4.35;3.55;;;;;;;;;;5053721;28;20378;-77
2022/08/13 11:13:23;;;;;;;5.93;3.95;;;;;;;;;;5041865;28;20045;-76
2022/08/13 11:19:40;;;;;;;7.70;3.90;;;;;;;;;;5054088;28;20485;-78
2022/08/13 11:22:45;;;;;;;4.85;4.00;;;;;;;;;;5041769;28;20040;-76
2022/08/13 11:25:50;;;;;;;7.35;3.40;;;;;;;;;;5054249;28;20037;-78
2022/08/13 11:28:54;;;;;;;4.88;3.83;;;;;;;;;;5041740;28;20037;-78
2022/08/13 11:31:58;;;;;;;5.60;4.05;;;;;;;;;;5053166;28;20025;-77
2022/08/13 11:35:04;;;;;;;4.22;3.45;;;;;;;;;;5054224;28;20045;-77
2022/08/13 11:38:08;;;;;;;6.53;3.85;;;;;;;;;;5054380;28;20041;-76
2022/08/13 11:41:13;;;;;;;6.57;3.92;;;;;;;;;;5052720;28;20469;-77
2022/08/13 11:44:19;;;;;;;5.32;3.80;;;;;;;;;;5030617;28;20045;-76
2022/08/13 11:47:23;;;;;;;7.53;4.68;;;;;;;;;;5052812;28;20041;-79
2022/08/13 11:50:27;;;;;;;6.25;4.63;;;;;;;;;;5041855;28;20037;-76
2022/08/13 11:53:31;;;;;;;8.60;4.10;;;;;;;;;;5052654;28;20048;-78
2022/08/13 11:56:36;;;;;;;3.90;3.50;;;;;;;;;;5053432;28;20036;-77
2022/08/13 11:59:40;;;;;;;9.02;4.25;;;;;;;;;;5041370;28;20049;-77
2022/08/13 12:02:45;;;;;;;7.40;4.75;;;;;;;;;;5041102;28;20037;-76
2022/08/13 12:05:49;;;;;;;6.40;4.20;;;;;;;;;;5052657;28;20477;-76
2022/08/13 12:08:54;;;;;;;7.07;5.32;;;;;;;;;;5052740;28;20374;-77
2022/08/13 12:11:59;;;;;;;5.82;4.43;;;;;;;;;;5042268;28;20049;-77
2022/08/13 12:15:05;;;;;;;6.03;4.00;;;;;;;;;;5040719;28;20374;-76
2022/08/13 12:18:13;;;;;;;5.65;3.92;;;;;;;;;;5053473;28;20044;-77
2022/08/13 12:21:17;;;;;;;7.22;4.70;;;;;;;;;;5052427;28;20053;-78
2022/08/13 12:24:22;;;;;;;5.63;3.90;;;;;;;;;;5041022;28;20374;-77
2022/08/13 12:27:26;;;;;;;5.40;3.80;;;;;;;;;;5051816;28;20041;-76
2022/08/13 12:30:31;;;;;;;5.35;3.13;;;;;;;;;;5052398;28;20033;-77
2022/08/13 12:33:36;;;;;;;3.85;3.17;;;;;;;;;;5052754;28;20560;-78
2022/08/13 12:36:41;;;;;;;7.10;3.90;;;;;;;;;;5054259;28;20479;-76
2022/08/13 12:39:45;;;;;;;4.63;3.30;;;;;;;;;;5040754;28;20472;-77
2022/08/13 12:42:50;;;;;;;5.05;3.50;;;;;;;;;;5051649;28;20053;-77
2022/08/13 12:45:57;;;;;;;4.75;3.70;;;;;;;;;;5052664;28;20041;-76
2022/08/13 12:49:02;;;;;;;4.65;3.63;;;;;;;;;;5051835;28;20049;-77
2022/08/13 12:52:07;;;;;;;4.55;3.50;;;;;;;;;;5053434;28;20037;-78
2022/08/13 12:55:13;;;;;;;4.80;4.35;;;;;;;;;;5051646;28;20033;-78
2022/08/13 12:58:19;;;;;;;5.32;3.80;;;;;;;;;;5028510;28;20025;-76
2022/08/13 13:01:23;;;;;;;4.18;3.63;;;;;;;;;;5050699;28;20497;-76
2022/08/13 13:04:27;;;;;;;6.65;3.72;;;;;;;;;;5039615;28;20036;-79
2022/08/13 13:07:31;;;;;;;4.90;3.40;;;;;;;;;;5050493;28;20037;-77
2022/08/13 13:10:36;;;;;;;6.85;4.15;;;;;;;;;;5051243;28;20373;-76
2022/08/13 13:13:42;;;;;;;6.32;3.53;;;;;;;;;;5039620;28;20029;-76
2022/08/13 13:16:46;;;;;;;4.38;3.70;;;;;;;;;;5051062;28;20501;-77
2022/08/13 13:19:53;;;;;;;4.43;3.80;;;;;;;;;;5051370;28;20053;-77
2022/08/13 13:22:59;;;;;;;4.03;3.63;;;;;;;;;;5051740;28;20045;-77
2022/08/13 13:26:04;;;;;;;6.13;3.75;;;;;;;;;;5051559;28;20041;-79
2022/08/13 13:29:11;;;;;;;4.55;3.80;;;;;;;;;;5038826;28;20036;-77
2022/08/13 13:32:16;;;;;;;5.18;3.63;;;;;;;;;;5040482;28;20040;-77
2022/08/13 13:35:20;;;;;;;6.57;3.60;;;;;;;;;;5051738;28;20041;-77
2022/08/13 13:38:26;;;;;;;4.05;3.50;;;;;;;;;;5051535;28;20033;-76
2022/08/13 13:41:30;;;;;;;6.95;3.80;;;;;;;;;;5051070;28;20049;-78
2022/08/13 13:44:34;;;;;;;3.83;3.47;;;;;;;;;;5052948;28;20033;-77
2022/08/13 13:47:39;;;;;;;5.10;3.20;;;;;;;;;;5052186;28;20048;-77
2022/08/13 13:50:43;;;;;;;4.00;3.13;;;;;;;;;;5052415;28;20386;-76
2022/08/13 13:53:48;;;;;;;4.90;3.00;;;;;;;;;;5054182;28;20049;-78
2022/08/13 13:56:52;;;;;;;5.78;3.88;;;;;;;;;;5056294;28;20045;-76
2022/08/13 13:59:57;;;;;;;4.18;2.80;;;;;;;;;;5054453;28;20041;-77
2022/08/13 14:03:04;;;;;;;7.60;3.22;;;;;;;;;;5043710;28;20045;-76
2022/08/13 14:06:08;;;;;;;6.38;2.97;;;;;;;;;;5055620;28;20033;-77
2022/08/13 14:09:13;;;;;;;5.40;2.80;;;;;;;;;;5043374;28;20037;-78
2022/08/13 14:12:18;;;;;;;3.20;2.75;;;;;;;;;;5055304;28;20374;-75
2022/08/13 14:15:23;;;;;;;3.83;3.42;;;;;;;;;;5055139;28;20045;-77
2022/08/13 14:18:28;;;;;;;6.07;4.93;;;;;;;;;;5055714;28;20040;-76
2022/08/13 14:21:33;;;;;;;4.72;3.20;;;;;;;;;;5054691;28;20045;-77
2022/08/13 14:24:40;;;;;;;3.50;2.33;;;;;;;;;;5053106;28;20029;-75
2022/08/13 14:27:46;;;;;;;5.63;2.78;;;;;;;;;;5052467;28;20040;-76
2022/08/13 14:30:52;;;;;;;4.22;3.25;;;;;;;;;;5052901;28;20033;-75
2022/08/13 14:33:57;;;;;;;8.10;3.08;;;;;;;;;;5053977;28;20033;-76
2022/08/13 14:37:01;;;;;;;3.08;2.78;;;;;;;;;;5052137;28;20049;-74
2022/08/13 14:40:07;;;;;;;3.90;2.70;;;;;;;;;;5054494;28;20048;-75
2022/08/13 14:43:12;;;;;;;4.53;2.60;;;;;;;;;;5054401;28;20037;-77
2022/08/13 14:46:17;;;;;;;5.22;2.80;;;;;;;;;;5042300;28;20037;-77
2022/08/13 14:49:21;;;;;;;4.95;2.60;;;;;;;;;;5032931;28;20045;-77
2022/08/13 14:52:28;;;;;;;4.65;3.10;;;;;;;;;;5054826;28;20037;-76
2022/08/13 14:55:33;;;;;;;3.97;2.97;;;;;;;;;;5054529;28;20037;-77
2022/08/13 14:58:38;;;;;;;3.47;2.80;;;;;;;;;;5055247;28;20045;-76
2022/08/13 15:01:42;;;;;;;2.83;2.60;;;;;;;;;;5055111;28;20049;-77
2022/08/13 15:04:48;;;;;;;4.70;2.97;;;;;;;;;;5031135;28;20374;-77
2022/08/13 15:07:53;;;;;;;6.00;3.00;;;;;;;;;;5053469;28;20033;-77
2022/08/13 15:11:00;;;;;;;3.38;3.03;;;;;;;;;;5031074;28;20045;-76
2022/08/13 15:14:04;;;;;;;6.95;3.58;;;;;;;;;;5030878;28;20217;-76
2022/08/13 15:17:10;;;;;;;5.00;3.05;;;;;;;;;;5030671;28;20037;-77
2022/08/13 15:20:19;;;;;;;4.45;2.97;;;;;;;;;;5030202;28;20037;-77
2022/08/13 15:23:24;;;;;;;3.08;2.75;;;;;;;;;;5053580;28;20041;-77
2022/08/13 15:26:28;;;;;;;4.47;3.40;;;;;;;;;;5053577;28;20036;-78
2022/08/13 15:29:33;;;;;;;5.10;3.22;;;;;;;;;;5052186;28;20045;-77
2022/08/13 15:32:39;;;;;;;4.63;2.85;;;;;;;;;;5052423;28;20040;-78
2022/08/13 15:35:44;;;;;;;6.07;3.40;;;;;;;;;;5053463;28;20499;-77
2022/08/13 15:38:49;;;;;;;4.03;2.88;;;;;;;;;;5040913;28;20373;-77
2022/08/13 15:42:04;;;;;;;4.22;3.35;;;;;;;;;;5052259;28;20049;-79
2022/08/13 15:45:12;;;;;;;3.63;2.95;;;;;;;;;;5029464;28;20033;-74
2022/08/13 15:48:17;;;;;;;6.15;3.20;;;;;;;;;;5052854;28;20041;-77
2022/08/13 15:51:22;;;;;;;4.00;3.03;;;;;;;;;;5040743;28;20037;-77
2022/08/13 15:54:26;;;;;;;4.10;3.10;;;;;;;;;;5051733;28;20041;-78
2022/08/13 15:57:30;;;;;;;6.60;4.18;;;;;;;;;;5051790;28;20033;-77
2022/08/13 16:00:37;;;;;;;6.03;3.17;;;;;;;;;;5053431;28;20381;-77
2022/08/13 16:03:42;;;;;;;4.15;3.40;;;;;;;;;;5052907;28;20382;-76
2022/08/13 16:06:47;;;;;;;4.47;3.45;;;;;;;;;;5054690;28;20048;-77
2022/08/13 16:09:51;;;;;;;6.78;3.85;;;;;;;;;;5053732;28;20409;-78
2022/08/13 16:13:00;;;;;;;5.18;4.05;;;;;;;;;;5053363;28;20036;-77
2022/08/13 16:16:05;;;;;;;5.07;3.28;;;;;;;;;;5029892;28;20040;-77
2022/08/13 16:19:10;;;;;;;6.28;3.28;;;;;;;;;;5041222;28;20505;-78
2022/08/13 16:22:16;;;;;;;5.53;3.92;;;;;;;;;;5052962;28;20496;-77
2022/08/13 16:25:25;;;;;;;6.60;4.18;;;;;;;;;;5040357;28;20461;-75
2022/08/13 16:28:30;;;;;;;8.80;3.53;;;;;;;;;;5052345;28;20033;-77
2022/08/13 16:31:34;;;;;;;6.65;3.10;;;;;;;;;;5051889;28;20041;-77
2022/08/13 16:34:39;;;;;;;4.40;3.30;;;;;;;;;;5051901;28;20477;-77
2022/08/13 16:38:03;;;;;;;4.53;3.50;;;;;;;;;;5029504;28;20396;-76
2022/08/13 16:41:07;;;;;;;4.60;3.50;;;;;;;;;;5051805;28;20053;-76
2022/08/13 16:44:12;;;;;;;5.43;3.35;;;;;;;;;;5051862;28;20045;-80
2022/08/13 16:47:18;;;;;;;5.25;3.50;;;;;;;;;;5053732;28;20245;-79
2022/08/13 16:50:24;;;;;;;3.63;3.28;;;;;;;;;;5029625;28;20377;-78
2022/08/13 16:53:28;;;;;;;5.13;3.33;;;;;;;;;;5052920;28;20049;-79
2022/08/13 16:56:33;;;;;;;7.57;4.05;;;;;;;;;;5052838;28;20045;-78
2022/08/13 16:59:43;;;;;;;6.30;4.22;;;;;;;;;;5051982;28;20045;-81
2022/08/13 17:09:44;;;;;;;5.88;4.10;;;;;;;;;;5053182;28;20041;-79
2022/08/13 17:12:48;;;;;;;7.85;3.88;;;;;;;;;;5053035;28;20216;-81
2022/08/13 17:15:54;;;;;;;6.65;3.40;;;;;;;;;;5051797;28;20037;-79
2022/08/13 17:19:05;;;;;;;6.53;4.00;;;;;;;;;;5052860;28;20374;-79
2022/08/13 17:22:09;;;;;;;8.52;4.45;;;;;;;;;;5052507;28;20385;-79
2022/08/13 17:25:14;;;;;;;5.43;4.93;;;;;;;;;;5051734;28;20378;-79
2022/08/13 17:28:23;;;;;;;8.38;4.45;;;;;;;;;;5053140;28;20037;-78
2022/08/13 17:31:28;;;;;;;6.45;4.57;;;;;;;;;;5056077;28;20037;-79
2022/08/13 17:34:33;;;;;;;6.00;4.55;;;;;;;;;;5056458;28;20037;-79
2022/08/13 17:37:38;;;;;;;5.28;4.07;;;;;;;;;;5056602;28;20037;-79
2022/08/13 17:40:45;;;;;;;6.07;4.35;;;;;;;;;;5055458;28;20493;-79
2022/08/13 17:43:50;;;;;;;7.50;4.05;;;;;;;;;;5056078;28;20037;-79
2022/08/13 17:46:57;;;;;;;5.80;4.22;;;;;;;;;;5055618;28;20033;-78
2022/08/13 17:50:02;;;;;;;5.57;2.70;;;;;;;;;;5055472;28;20493;-81
2022/08/13 17:53:08;;;;;;;3.13;2.45;;;;;;;;;;5055480;28;20049;-80
2022/08/13 17:56:14;;;;;;;6.13;2.08;;;;;;;;;;5056112;28;20044;-77
2022/08/13 17:59:19;;;;;;;4.43;2.22;;;;;;;;;;5055553;28;20469;-80
2022/08/13 18:02:24;;;;;;;6.40;2.10;;;;;;;;;;5054302;28;20049;-80
2022/08/13 18:05:29;;;;;;;9.60;2.22;;;;;;;;;;5056006;28;20370;-80
2022/08/13 18:08:36;;;;;;;4.30;1.95;;;;;;;;;;5054289;28;20040;-83
2022/08/13 18:11:42;;;;;;;3.00;2.10;;;;;;;;;;5054246;28;20029;-79
2022/08/13 18:14:48;;;;;;;3.42;1.92;;;;;;;;;;5054582;28;20029;-80
2022/08/13 18:17:53;;;;;;;6.60;2.67;;;;;;;;;;5050629;28;20029;-78
2022/08/13 18:20:58;;;;;;;5.80;1.85;;;;;;;;;;5040593;28;20048;-80
2022/08/13 18:24:03;;;;;;;5.97;2.50;;;;;;;;;;5052608;28;20103;-80
2022/08/13 18:27:07;;;;;;;4.32;2.28;;;;;;;;;;5041050;28;20033;-80
2022/08/13 18:30:13;;;;;;;3.95;2.60;;;;;;;;;;5053508;28;20484;-80
2022/08/13 18:33:18;;;;;;;4.45;2.20;;;;;;;;;;5041078;28;20493;-80
2022/08/13 18:36:22;;;;;;;4.03;2.47;;;;;;;;;;5053004;28;20365;-80
2022/08/13 18:39:26;;;;;;;3.10;2.08;;;;;;;;;;5041066;28;20032;-81
2022/08/13 18:42:30;;;;;;;5.25;2.40;;;;;;;;;;5052073;28;20045;-81
2022/08/13 18:45:35;;;;;;;3.88;2.10;;;;;;;;;;5052789;28;20037;-80
2022/08/13 18:48:39;;;;;;;4.25;1.73;;;;;;;;;;5040934;28;20037;-81
2022/08/13 18:51:44;;;;;;;6.45;2.13;;;;;;;;;;5041282;28;20045;-81
2022/08/13 18:54:48;;;;;;;5.53;1.90;;;;;;;;;;5040988;28;20037;-81
2022/08/13 18:57:53;;;;;;;4.25;2.22;;;;;;;;;;5051972;28;20185;-81